Time;durP1;ratioP1;P1;durP2;ratioP2;P2;SDS_P1;SDS_P2;PMS_P1;PMS_P2;Temp;Humidity;BMP_temperature;BMP_pressure;BME280_temperature;BME280_humidity;BME280_pressure;Samples;Min_cycle;Max_cycle;Signal;HPM_P1;HPM_P2
2022/03/04 00:00:54;;;;;;;42.03;23.60;;;0.30;2201.60;;;;;;5011694;28;20116;-77
2022/03/04 00:03:20;;;;;;;38.47;23.88;;;0.20;2201.60;;;;;;5013122;28;20381;-77
2022/03/04 00:05:46;;;;;;;47.47;26.20;;;0.20;2201.60;;;;;;5011588;28;20084;-78
2022/03/04 00:08:12;;;;;;;45.63;25.98;;;0.30;2201.60;;;;;;5011811;28;20026;-78
2022/03/04 00:10:38;;;;;;;50.83;30.02;;;0.40;2201.60;;;;;;5012198;28;20036;-77
2022/03/04 00:13:04;;;;;;;50.97;29.20;;;0.30;2201.60;;;;;;5011606;28;20030;-77
2022/03/04 00:15:30;;;;;;;51.38;28.80;;;0.40;2201.60;;;;;;5011593;28;20149;-77
2022/03/04 00:17:56;;;;;;;53.35;29.27;;;0.50;2201.60;;;;;;5011184;28;20030;-77
2022/03/04 00:20:21;;;;;;;44.42;24.80;;;0.50;2201.60;;;;;;5012697;28;20144;-78
2022/03/04 00:22:48;;;;;;;35.03;21.48;;;0.30;2201.60;;;;;;5012409;28;20446;-76
2022/03/04 00:25:13;;;;;;;37.05;21.75;;;0.30;2201.60;;;;;;5012592;28;20032;-76
2022/03/04 00:27:39;;;;;;;42.22;21.65;;;0.20;2201.60;;;;;;5012177;28;20030;-75
2022/03/04 00:30:06;;;;;;;37.75;22.95;;;0.20;2201.60;;;;;;5012316;28;20047;-78
2022/03/04 00:32:32;;;;;;;41.60;25.20;;;0.20;2201.60;;;;;;5010856;28;20084;-78
2022/03/04 00:34:58;;;;;;;38.47;24.88;;;0.20;2201.60;;;;;;5012218;28;20062;-76
2022/03/04 00:37:23;;;;;;;44.70;27.45;;;0.20;2201.60;;;;;;5012205;28;20057;-77
2022/03/04 00:39:49;;;;;;;45.00;27.92;;;0.20;2201.60;;;;;;5012381;28;20030;-76
2022/03/04 00:42:15;;;;;;;41.60;25.25;;;0.10;2201.60;;;;;;5010943;28;20455;-77
2022/03/04 00:44:40;;;;;;;39.22;22.55;;;0.10;2201.60;;;;;;5012339;28;20396;-77
2022/03/04 00:47:06;;;;;;;47.45;28.08;;;0.00;2201.60;;;;;;5012411;28;20030;-77
2022/03/04 00:49:32;;;;;;;50.00;30.92;;;0.00;2201.60;;;;;;5012072;28;20496;-78
2022/03/04 00:51:58;;;;;;;46.65;27.65;;;0.00;2201.60;;;;;;5011990;28;20488;-77
2022/03/04 00:54:24;;;;;;;48.53;26.42;;;0.00;2201.60;;;;;;5012306;28;20022;-77
2022/03/04 00:56:50;;;;;;;50.17;27.17;;;0.00;2201.60;;;;;;5012553;28;20022;-77
2022/03/04 00:59:15;;;;;;;50.35;28.25;;;0.10;2201.60;;;;;;5011843;28;20034;-78
2022/03/04 01:01:41;;;;;;;45.22;25.92;;;0.00;2201.60;;;;;;5011861;28;20088;-78
2022/03/04 01:04:07;;;;;;;50.63;28.52;;;0.00;2201.60;;;;;;5010974;28;20113;-78
2022/03/04 01:06:34;;;;;;;38.38;24.27;;;0.00;2201.60;;;;;;5012047;28;20133;-78
2022/03/04 01:08:59;;;;;;;44.38;25.10;;;12.90;2201.60;;;;;;5011948;28;20022;-77
2022/03/04 01:11:25;;;;;;;37.35;22.80;;;12.90;2201.60;;;;;;5012228;28;20397;-77
2022/03/04 01:13:51;;;;;;;34.08;20.50;;;0.00;2201.60;;;;;;5012139;28;20033;-77
2022/03/04 01:16:17;;;;;;;37.50;24.50;;;12.90;2201.60;;;;;;5012063;28;20018;-75
2022/03/04 01:18:43;;;;;;;53.10;29.42;;;12.90;2201.60;;;;;;5011428;28;20032;-77
2022/03/04 01:21:08;;;;;;;82.88;44.83;;;0.00;2201.60;;;;;;5010716;28;20052;-76
2022/03/04 01:23:34;;;;;;;135.00;76.72;;;0.00;2201.60;;;;;;5011988;28;20026;-75
2022/03/04 01:26:01;;;;;;;108.70;67.03;;;0.10;2201.60;;;;;;5011958;28;20084;-77
2022/03/04 01:28:26;;;;;;;111.45;64.03;;;0.00;2201.60;;;;;;5011907;28;20060;-76
2022/03/04 01:30:52;;;;;;;109.15;62.08;;;0.00;2201.60;;;;;;5011285;28;20461;-77
2022/03/04 01:33:18;;;;;;;110.18;62.95;;;0.00;2201.60;;;;;;5011663;28;20030;-77
2022/03/04 01:35:44;;;;;;;105.72;60.08;;;12.90;2201.60;;;;;;5012133;28;20485;-77
2022/03/04 01:38:10;;;;;;;132.95;73.53;;;12.90;2201.60;;;;;;5010668;28;20036;-77
2022/03/04 01:40:36;;;;;;;122.82;68.47;;;12.90;2201.60;;;;;;5011897;28;20427;-75
2022/03/04 01:43:02;;;;;;;126.35;73.53;;;13.00;2201.60;;;;;;5011856;28;20136;-77
2022/03/04 01:45:28;;;;;;;88.85;51.53;;;13.10;2201.60;;;;;;5010511;28;20026;-77
2022/03/04 01:47:54;;;;;;;47.80;25.67;;;13.20;2201.60;;;;;;5010541;28;20037;-77
2022/03/04 01:50:19;;;;;;;50.17;29.90;;;13.20;2201.60;;;;;;5011504;28;20038;-78
2022/03/04 01:52:45;;;;;;;45.90;26.35;;;13.20;2201.60;;;;;;5011536;28;20033;-77
2022/03/04 01:55:11;;;;;;;55.58;31.40;;;13.30;2201.60;;;;;;5013145;28;20037;-78
2022/03/04 01:57:38;;;;;;;40.30;24.40;;;13.20;2201.60;;;;;;5014729;28;20362;-78
2022/03/04 02:00:07;;;;;;;44.22;25.45;;;13.30;2201.60;;;;;;5015065;28;20037;-77
2022/03/04 02:02:32;;;;;;;40.85;23.92;;;13.30;2201.60;;;;;;5014970;28;20038;-77
2022/03/04 02:04:58;;;;;;;40.75;23.48;;;13.30;2201.60;;;;;;5015289;28;20083;-76
2022/03/04 02:07:24;;;;;;;57.55;32.33;;;13.30;2201.60;;;;;;5014987;28;20129;-77
2022/03/04 02:09:50;;;;;;;58.03;31.83;;;13.20;2201.60;;;;;;5015081;28;20114;-76
2022/03/04 02:12:16;;;;;;;67.53;35.45;;;13.20;2201.60;;;;;;5015285;28;20033;-77
2022/03/04 02:14:41;;;;;;;108.45;59.90;;;13.30;2201.60;;;;;;5014732;28;20386;-78
2022/03/04 02:17:07;;;;;;;61.47;34.85;;;13.40;2201.60;;;;;;5013703;28;20059;-77
2022/03/04 02:19:33;;;;;;;71.63;41.85;;;13.40;2201.60;;;;;;5013607;28;20461;-76
2022/03/04 02:22:01;;;;;;;71.07;42.88;;;13.40;2201.60;;;;;;5014518;28;20038;-76
2022/03/04 02:24:30;;;;;;;80.00;49.33;;;13.40;2201.60;;;;;;5014843;28;20022;-76
2022/03/04 02:26:59;;;;;;;97.75;54.42;;;13.40;2201.60;;;;;;5013108;28;20030;-77
2022/03/04 02:29:26;;;;;;;102.68;56.25;;;13.50;2201.60;;;;;;5013516;28;20068;-76
2022/03/04 02:31:53;;;;;;;103.72;60.88;;;13.50;2201.60;;;;;;5014644;28;20476;-76
2022/03/04 02:34:19;;;;;;;102.53;59.33;;;13.60;2201.60;;;;;;5013214;28;20030;-77
2022/03/04 02:36:47;;;;;;;109.13;63.38;;;13.60;2201.60;;;;;;5014268;28;20037;-76
2022/03/04 02:39:12;;;;;;;112.55;61.75;;;13.60;2201.60;;;;;;5014325;28;20057;-77
2022/03/04 02:41:38;;;;;;;111.85;68.85;;;13.60;2201.60;;;;;;5013794;28;20072;-76
2022/03/04 02:44:09;;;;;;;112.10;65.68;;;13.60;2201.60;;;;;;5014567;28;20084;-77
2022/03/04 02:46:35;;;;;;;125.45;73.28;;;13.60;2201.60;;;;;;5014005;28;20441;-78
2022/03/04 02:49:01;;;;;;;114.43;66.97;;;13.60;2201.60;;;;;;5013118;28;20022;-78
2022/03/04 02:51:27;;;;;;;124.45;75.22;;;13.70;2201.60;;;;;;5014346;28;20096;-78
2022/03/04 02:53:53;;;;;;;132.95;74.80;;;13.70;2201.60;;;;;;5013874;28;20474;-77
2022/03/04 02:56:19;;;;;;;135.13;76.30;;;13.70;2201.60;;;;;;5014334;28;20022;-77
2022/03/04 02:58:45;;;;;;;133.90;74.95;;;13.70;2201.60;;;;;;5014308;28;20022;-77
2022/03/04 03:01:11;;;;;;;123.72;77.57;;;13.70;2201.60;;;;;;5012863;28;20038;-78
2022/03/04 03:03:37;;;;;;;129.00;74.45;;;13.70;2201.60;;;;;;5014314;28;20026;-78
2022/03/04 03:06:03;;;;;;;105.32;58.88;;;13.60;2201.60;;;;;;5014114;28;20669;-77
2022/03/04 03:08:29;;;;;;;96.97;57.53;;;13.60;2201.60;;;;;;5013981;28;20092;-77
2022/03/04 03:10:55;;;;;;;88.78;52.67;;;13.70;2201.60;;;;;;5014205;28;20153;-78
2022/03/04 03:13:21;;;;;;;94.57;58.15;;;13.70;2201.60;;;;;;5014315;28;20076;-77
2022/03/04 03:15:48;;;;;;;101.25;57.55;;;13.70;2201.60;;;;;;5012686;28;20088;-77
2022/03/04 03:18:14;;;;;;;94.22;56.75;;;13.70;2201.60;;;;;;5013819;28;20104;-77
2022/03/04 03:20:40;;;;;;;95.20;58.63;;;38.40;2201.60;;;;;;5013688;28;20172;-77
2022/03/04 03:23:05;;;;;;;97.93;57.00;;;38.40;2201.60;;;;;;5013564;28;20045;-75
2022/03/04 03:25:31;;;;;;;93.90;58.22;;;38.40;2201.60;;;;;;5012503;28;20026;-77
2022/03/04 03:27:57;;;;;;;100.25;59.33;;;38.40;2201.60;;;;;;5013559;28;20517;-77
2022/03/04 03:30:23;;;;;;;111.50;61.67;;;38.40;2201.60;;;;;;5013283;28;20500;-77
2022/03/04 03:32:49;;;;;;;99.32;57.55;;;38.50;2201.60;;;;;;5013274;28;20026;-77
2022/03/04 03:35:14;;;;;;;117.30;57.67;;;38.40;2201.60;;;;;;5012287;28;20469;-76
2022/03/04 03:37:40;;;;;;;104.05;60.40;;;38.40;2201.60;;;;;;5012192;28;20037;-78
2022/03/04 03:40:09;;;;;;;118.22;61.45;;;38.50;2201.60;;;;;;5012209;28;20030;-77
2022/03/04 03:42:35;;;;;;;124.80;61.95;;;38.50;2201.60;;;;;;5012467;28;20389;-78
2022/03/04 03:45:02;;;;;;;112.05;61.80;;;38.60;2201.60;;;;;;5013024;28;20026;-77
2022/03/04 03:47:27;;;;;;;117.95;64.60;;;38.70;2201.60;;;;;;5012085;28;20084;-77
2022/03/04 03:49:53;;;;;;;123.80;68.85;;;38.70;2201.60;;;;;;5012157;28;20054;-76
2022/03/04 03:52:19;;;;;;;118.15;65.28;;;38.80;2201.60;;;;;;5013021;28;20381;-76
2022/03/04 03:54:44;;;;;;;110.38;61.78;;;38.80;2201.60;;;;;;5013506;28;20029;-76
2022/03/04 03:57:10;;;;;;;120.22;67.28;;;38.80;2201.60;;;;;;5012184;28;20032;-76
2022/03/04 03:59:37;;;;;;;143.45;80.72;;;38.80;2201.60;;;;;;5011357;28;20060;-78
2022/03/04 04:02:03;;;;;;;140.77;76.85;;;38.80;2201.60;;;;;;5011294;28;20037;-76
2022/03/04 04:04:34;;;;;;;127.43;71.15;;;38.80;2201.60;;;;;;5011151;28;20112;-76
2022/03/04 04:07:03;;;;;;;145.20;80.53;;;38.80;2201.60;;;;;;5011228;28;20054;-74
2022/03/04 04:09:29;;;;;;;134.75;74.47;;;38.80;2201.60;;;;;;5011185;28;20022;-75
2022/03/04 04:11:55;;;;;;;115.95;71.15;;;38.90;2201.60;;;;;;5011443;28;20104;-76
2022/03/04 04:14:22;;;;;;;112.55;66.80;;;38.90;2201.60;;;;;;5012364;28;20049;-76
2022/03/04 04:16:48;;;;;;;120.63;70.00;;;38.90;2201.60;;;;;;5011764;28;20030;-75
2022/03/04 04:19:13;;;;;;;109.28;65.10;;;38.90;2201.60;;;;;;5012748;28;20026;-75
2022/03/04 04:21:39;;;;;;;160.15;89.28;;;39.00;2201.60;;;;;;5012385;28;20041;-75
2022/03/04 04:24:05;;;;;;;146.32;80.32;;;39.20;2201.60;;;;;;5012721;28;20428;-75
2022/03/04 04:26:32;;;;;;;116.53;67.15;;;39.20;2201.60;;;;;;5012704;28;20030;-77
2022/03/04 04:28:58;;;;;;;104.15;61.83;;;39.20;2201.60;;;;;;5011301;28;20026;-75
2022/03/04 04:31:24;;;;;;;107.78;60.55;;;39.20;2201.60;;;;;;5011280;28;20109;-75
2022/03/04 04:33:50;;;;;;;132.57;77.80;;;39.20;2201.60;;;;;;5012758;28;20050;-75
2022/03/04 04:36:16;;;;;;;151.85;80.07;;;39.20;2201.60;;;;;;5012601;28;20065;-76
2022/03/04 04:38:42;;;;;;;128.18;71.20;;;39.20;2201.60;;;;;;5012576;28;20037;-75
2022/03/04 04:41:07;;;;;;;113.05;67.45;;;39.20;2201.60;;;;;;5012637;28;20038;-76
2022/03/04 04:43:34;;;;;;;124.18;68.60;;;39.30;2201.60;;;;;;5012051;28;20497;-78
2022/03/04 04:46:00;;;;;;;109.53;59.72;;;39.30;2201.60;;;;;;5012309;28;20030;-75
2022/03/04 04:48:25;;;;;;;102.25;56.63;;;39.30;2201.60;;;;;;5012422;28;20022;-77
2022/03/04 04:50:51;;;;;;;95.53;50.55;;;39.30;2201.60;;;;;;5012054;28;20096;-75
2022/03/04 04:53:17;;;;;;;98.45;57.67;;;39.30;2201.60;;;;;;5012540;28;20026;-75
2022/03/04 04:55:43;;;;;;;100.88;55.33;;;39.30;2201.60;;;;;;5011886;28;20412;-78
2022/03/04 04:58:08;;;;;;;98.85;55.03;;;39.30;2201.60;;;;;;5012271;28;20050;-75
2022/03/04 05:00:34;;;;;;;89.93;56.20;;;39.30;2201.60;;;;;;5011354;28;20500;-76
2022/03/04 05:03:00;;;;;;;96.05;56.53;;;39.30;2201.60;;;;;;5012110;28;20026;-76
2022/03/04 05:05:25;;;;;;;117.55;57.63;;;39.30;2201.60;;;;;;5010951;28;20041;-75
2022/03/04 05:07:51;;;;;;;96.05;55.67;;;39.30;2201.60;;;;;;5012130;28;20453;-78
2022/03/04 05:10:17;;;;;;;103.43;63.83;;;39.20;2201.60;;;;;;5010910;28;20030;-76
2022/03/04 05:12:43;;;;;;;107.20;58.10;;;39.20;2201.60;;;;;;5012051;28;20026;-74
2022/03/04 05:15:08;;;;;;;106.75;57.60;;;39.10;2201.60;;;;;;5011755;28;20120;-76
2022/03/04 05:17:34;;;;;;;116.13;67.95;;;39.10;2201.60;;;;;;5011633;28;20030;-75
2022/03/04 05:20:00;;;;;;;121.30;61.08;;;39.10;2201.60;;;;;;5010627;28;20370;-76
2022/03/04 05:22:26;;;;;;;112.47;62.28;;;39.10;2201.60;;;;;;5007193;28;20034;-75
2022/03/04 05:24:52;;;;;;;129.90;64.50;;;39.10;2201.60;;;;;;5011956;28;20466;-75
2022/03/04 05:27:17;;;;;;;102.35;58.92;;;39.10;2201.60;;;;;;5012059;28;20108;-75
2022/03/04 05:29:43;;;;;;;216.88;105.38;;;39.10;2201.60;;;;;;5013433;28;20049;-75
2022/03/04 05:32:09;;;;;;;145.05;78.97;;;39.00;2201.60;;;;;;5015483;28;20552;-76
2022/03/04 05:34:37;;;;;;;109.95;60.78;;;38.90;2201.60;;;;;;5015531;28;20072;-78
2022/03/04 05:37:03;;;;;;;92.55;56.20;;;38.90;2201.60;;;;;;5014380;28;20033;-77
2022/03/04 05:39:29;;;;;;;89.82;51.50;;;38.80;2201.60;;;;;;5014841;28;20537;-75
2022/03/04 05:41:55;;;;;;;85.47;49.78;;;38.80;2201.60;;;;;;5015379;28;20120;-76
2022/03/04 05:44:20;;;;;;;88.22;48.17;;;38.60;2201.60;;;;;;5016686;28;20132;-77
2022/03/04 05:46:46;;;;;;;87.80;48.35;;;38.50;2201.60;;;;;;5018048;28;20064;-74
2022/03/04 05:49:12;;;;;;;81.32;45.85;;;38.40;2201.60;;;;;;5015159;28;20337;-75
2022/03/04 05:51:38;;;;;;;86.22;48.53;;;13.60;2201.60;;;;;;5015199;28;20030;-78
2022/03/04 05:54:04;;;;;;;102.43;54.97;;;13.50;2201.60;;;;;;5015495;28;20022;-77
2022/03/04 05:56:30;;;;;;;113.63;58.67;;;13.40;2201.60;;;;;;5013716;28;20026;-81
2022/03/04 05:58:55;;;;;;;115.07;64.95;;;13.30;2201.60;;;;;;5014072;28;20041;-76
2022/03/04 06:01:21;;;;;;;114.95;60.88;;;13.20;2201.60;;;;;;5013887;28;20037;-76
2022/03/04 06:03:47;;;;;;;108.15;65.07;;;13.00;2201.60;;;;;;5015116;28;20112;-76
2022/03/04 06:06:13;;;;;;;114.63;63.92;;;12.90;2201.60;;;;;;5014530;28;20121;-77
2022/03/04 06:08:40;;;;;;;138.32;66.82;;;0.00;2201.60;;;;;;5015232;28;20033;-74
2022/03/04 06:11:10;;;;;;;123.38;72.30;;;0.20;2201.60;;;;;;5013508;28;20046;-76
2022/03/04 06:13:36;;;;;;;121.25;68.75;;;0.30;2201.60;;;;;;5014891;28;20054;-75
2022/03/04 06:16:03;;;;;;;133.48;77.55;;;0.40;2201.60;;;;;;5015069;28;20045;-76
2022/03/04 06:18:28;;;;;;;147.80;80.50;;;0.50;2201.60;;;;;;5015062;28;20058;-75
2022/03/04 06:20:54;;;;;;;140.88;82.55;;;0.70;2201.60;;;;;;5015075;28;20069;-75
2022/03/04 06:23:21;;;;;;;140.40;80.00;;;0.70;2201.60;;;;;;5014705;28;20030;-76
2022/03/04 06:25:47;;;;;;;123.50;71.15;;;0.80;2201.60;;;;;;5013347;28;20133;-75
2022/03/04 06:28:12;;;;;;;150.13;80.05;;;0.80;2201.60;;;;;;5014734;28;20101;-76
2022/03/04 06:30:39;;;;;;;151.48;86.85;;;0.90;2201.60;;;;;;5013701;28;20109;-78
2022/03/04 06:35:50;;;;;;;149.55;84.40;;;25.60;2201.60;;;;;;5008594;28;20072;-76
2022/03/04 06:38:17;;;;;;;158.75;86.25;;;25.70;2201.60;;;;;;5013421;28;20017;-76
2022/03/04 06:40:43;;;;;;;135.15;75.63;;;25.60;2201.60;;;;;;5011835;28;20481;-76
2022/03/04 06:43:09;;;;;;;130.20;69.65;;;0.80;2201.60;;;;;;4997168;28;20061;-76
2022/03/04 06:45:36;;;;;;;112.38;64.65;;;0.80;2201.60;;;;;;5003324;28;20025;-76
2022/03/04 06:48:01;;;;;;;107.70;60.67;;;25.60;2201.60;;;;;;5012970;28;20493;-76
2022/03/04 06:50:28;;;;;;;103.95;61.88;;;25.80;2201.60;;;;;;5014420;28;20050;-77
2022/03/04 06:52:54;;;;;;;110.25;61.10;;;26.00;2201.60;;;;;;5012885;28;20124;-78
2022/03/04 06:55:20;;;;;;;105.38;61.08;;;26.30;2201.60;;;;;;5013941;28;20458;-77
2022/03/04 06:57:50;;;;;;;101.97;61.25;;;26.40;2201.60;;;;;;5012901;28;20080;-76
2022/03/04 07:00:16;;;;;;;112.57;62.65;;;51.20;2227.20;;;;;;5014109;28;20026;-77
2022/03/04 07:02:41;;;;;;;98.55;61.05;;;26.40;2201.60;;;;;;5012695;28;20068;-77
2022/03/04 07:05:09;;;;;;;102.20;58.67;;;51.20;2227.20;;;;;;5012706;28;20061;-75
2022/03/04 07:07:35;;;;;;;106.57;60.60;;;51.30;2227.20;;;;;;5013670;28;20072;-75
2022/03/04 07:10:01;;;;;;;112.07;62.35;;;51.40;2227.20;;;;;;5013545;28;20501;-77
2022/03/04 07:12:27;;;;;;;100.95;61.95;;;51.40;2227.20;;;;;;5012431;28;20499;-76
2022/03/04 07:14:53;;;;;;;113.47;61.63;;;51.60;2227.20;;;;;;5013861;28;20026;-75
2022/03/04 07:17:18;;;;;;;101.55;62.85;;;51.70;2227.20;;;;;;5014100;28;20477;-76
2022/03/04 07:19:44;;;;;;;111.03;62.00;;;51.80;2227.20;;;;;;5013288;28;20029;-78
2022/03/04 07:22:10;;;;;;;100.32;61.22;;;52.00;2227.20;;;;;;5012156;28;20397;-78
2022/03/04 07:24:36;;;;;;;106.60;61.25;;;52.10;2227.20;;;;;;5013999;28;20034;-76
2022/03/04 07:27:02;;;;;;;104.80;63.92;;;76.90;2227.20;;;;;;5013545;28;20025;-75
2022/03/04 07:29:28;;;;;;;109.05;65.25;;;76.90;2227.20;;;;;;5013326;28;20048;-75
2022/03/04 07:31:54;;;;;;;106.28;64.43;;;76.90;2227.20;;;;;;5013335;28;20424;-75
2022/03/04 07:34:21;;;;;;;136.55;71.15;;;77.10;2227.20;;;;;;5012964;28;20024;-75
2022/03/04 07:36:47;;;;;;;110.35;66.97;;;77.20;2227.20;;;;;;5010556;28;20030;-75
2022/03/04 07:39:13;;;;;;;101.72;59.90;;;77.30;2227.20;;;;;;5012950;28;20029;-76
2022/03/04 07:41:39;;;;;;;118.90;64.28;;;77.40;2227.20;;;;;;5012448;28;20042;-75
2022/03/04 07:44:05;;;;;;;115.95;65.00;;;77.60;2227.20;;;;;;5012687;28;20030;-77
2022/03/04 07:46:31;;;;;;;116.90;64.95;;;102.40;2227.20;;;;;;5013261;28;20037;-76
2022/03/04 07:48:57;;;;;;;119.00;62.85;;;102.60;2227.20;;;;;;5013410;28;20109;-75
2022/03/04 07:51:24;;;;;;;110.72;63.08;;;102.80;2227.20;;;;;;5012467;28;20097;-78
2022/03/04 07:53:50;;;;;;;99.90;60.50;;;102.90;2227.20;;;;;;5012391;28;20120;-76
2022/03/04 07:56:16;;;;;;;108.38;61.10;;;103.10;2227.20;;;;;;5013168;28;20121;-77
2022/03/04 07:58:41;;;;;;;115.60;65.30;;;103.20;2227.20;;;;;;5011662;28;20068;-76
2022/03/04 08:01:08;;;;;;;110.45;59.80;;;128.00;2252.80;;;;;;5012814;28;20045;-76
2022/03/04 08:03:35;;;;;;;98.20;57.42;;;128.20;2201.60;;;;;;5012884;28;20519;-75
2022/03/04 08:06:00;;;;;;;96.03;53.63;;;128.50;2150.40;;;;;;5012525;28;20305;-75
2022/03/04 08:08:26;;;;;;;90.63;55.50;;;128.90;2073.60;;;;;;5011533;28;20022;-75
2022/03/04 08:10:53;;;;;;;101.00;57.28;;;153.60;2048.00;;;;;;5012290;28;20022;-77
2022/03/04 08:13:19;;;;;;;95.93;57.22;;;154.00;1971.20;;;;;;5011327;28;20026;-78
2022/03/04 08:15:45;;;;;;;90.75;53.40;;;154.30;1920.00;;;;;;5012621;28;20021;-77
2022/03/04 08:18:11;;;;;;;93.10;54.30;;;154.20;1894.40;;;;;;5012677;28;20072;-75
2022/03/04 08:20:38;;;;;;;86.47;54.63;;;154.30;1894.40;;;;;;5010902;28;20065;-75
2022/03/04 08:23:03;;;;;;;85.60;53.38;;;154.50;1894.40;;;;;;5012465;28;20088;-75
2022/03/04 08:25:29;;;;;;;98.72;53.83;;;179.30;1843.20;;;;;;5012177;28;20465;-76
2022/03/04 08:27:55;;;;;;;92.13;52.15;;;179.40;1843.20;;;;;;5012419;28;20033;-76
2022/03/04 08:30:21;;;;;;;89.50;56.22;;;179.60;1792.00;;;;;;5012225;28;20021;-76
2022/03/04 08:32:46;;;;;;;94.95;52.97;;;179.70;1792.00;;;;;;5012222;28;20026;-76
2022/03/04 08:35:12;;;;;;;96.50;57.67;;;;;;;;;;5012531;28;20025;-75
2022/03/04 08:37:39;;;;;;;95.43;56.25;;;;;;;;;;5012203;28;20022;-76
2022/03/04 08:40:05;;;;;;;79.60;51.53;;;;;;;;;;5012269;28;20022;-76
2022/03/04 08:42:32;;;;;;;81.57;50.05;;;;;;;;;;5011808;28;20029;-77
2022/03/04 08:44:58;;;;;;;78.57;51.08;;;;;;;;;;5011809;28;20021;-75
2022/03/04 08:47:24;;;;;;;88.57;54.45;;;;;;;;;;5012190;28;20022;-75
2022/03/04 08:49:51;;;;;;;84.80;51.83;;;;;;;;;;5012099;28;20022;-77
2022/03/04 08:52:17;;;;;;;99.78;53.85;;;;;;;;;;5012030;28;20021;-78
2022/03/04 08:54:43;;;;;;;85.63;52.45;;;;;;;;;;5011129;28;20026;-75
2022/03/04 08:57:09;;;;;;;81.78;50.42;;;;;;;;;;5012285;28;20114;-75
2022/03/04 08:59:35;;;;;;;73.43;49.67;;;;;;;;;;5011471;28;20104;-75
2022/03/04 09:02:01;;;;;;;75.20;53.15;;;;;;;;;;5010930;28;20069;-76
2022/03/04 09:04:27;;;;;;;94.65;54.13;;;;;;;;;;5014803;28;20025;-77
2022/03/04 09:06:53;;;;;;;84.40;54.97;;;;;;;;;;5016703;28;20045;-76
2022/03/04 09:09:19;;;;;;;89.75;54.63;;;;;;;;;;5018443;28;20026;-75
2022/03/04 09:11:45;;;;;;;87.50;55.45;;;;;;;;;;5018376;28;20033;-75
2022/03/04 09:14:11;;;;;;;87.68;56.25;;;;;;;;;;5017955;28;20033;-76
2022/03/04 09:16:37;;;;;;;90.90;54.15;;;;;;;;;;5018367;28;20500;-76
2022/03/04 09:19:04;;;;;;;94.75;55.50;;;;;;;;;;5018577;28;20021;-75
2022/03/04 09:21:30;;;;;;;81.78;52.22;;;;;;;;;;5017142;28;20546;-76
2022/03/04 09:23:56;;;;;;;43.33;29.42;;;;;;;;;;5017507;28;20026;-75
2022/03/04 09:26:22;;;;;;;33.63;24.77;;;;;;;;;;5017089;28;20029;-75
2022/03/04 09:28:48;;;;;;;39.17;21.88;;;;;;;;;;5017075;28;20117;-75
2022/03/04 09:31:14;;;;;;;31.25;20.20;;;;;;;;;;5016706;28;20029;-74
2022/03/04 09:33:40;;;;;;;33.40;20.27;;;;;;;;;;5018243;28;20045;-75
2022/03/04 09:36:11;;;;;;;39.47;22.90;;;;;;;;;;5016748;28;20061;-76
2022/03/04 09:38:38;;;;;;;36.05;22.30;;;;;;;;;;5018247;28;20018;-76
2022/03/04 09:41:04;;;;;;;36.10;24.05;;;;;;;;;;5016727;28;20072;-75
2022/03/04 09:43:30;;;;;;;35.67;20.45;;;;;;;;;;5018259;28;20018;-76
2022/03/04 09:45:56;;;;;;;39.78;23.75;;;;;;;;;;5018099;28;20018;-76
2022/03/04 09:48:23;;;;;;;31.08;20.98;;;;;;;;;;5016600;28;20026;-78
2022/03/04 09:50:49;;;;;;;39.55;24.55;;;;;;;;;;5015809;28;20476;-75
2022/03/04 09:53:16;;;;;;;31.60;21.70;;;;;;;;;;5016090;28;20057;-76
2022/03/04 09:55:43;;;;;;;40.75;21.73;;;;;;;;;;5017651;28;20018;-75
2022/03/04 09:58:14;;;;;;;28.70;19.70;;;;;;;;;;5017831;28;20542;-76
2022/03/04 10:00:42;;;;;;;38.60;19.75;;;;;;;;;;5016847;28;20418;-75
2022/03/04 10:03:28;;;;;;;37.35;20.08;;;;;;;;;;5017550;28;20033;-77
2022/03/04 10:05:55;;;;;;;27.48;19.50;;;;;;;;;;5039139;28;20050;-75
2022/03/04 10:08:22;;;;;;;36.00;21.00;;;;;;;;;;5017934;28;20029;-76
2022/03/04 10:10:52;;;;;;;30.33;20.95;;;;;;;;;;5017890;28;20033;-75
2022/03/04 10:13:18;;;;;;;37.58;20.92;;;;;;;;;;5017982;28;20164;-78
2022/03/04 10:15:56;;;;;;;31.02;21.25;;;;;;;;;;5014938;28;20475;-75
2022/03/04 10:18:26;;;;;;;29.38;19.15;;;;;;;;;;5014866;28;20025;-75
2022/03/04 10:20:52;;;;;;;35.10;24.75;;;;;;;;;;5013358;28;20038;-76
2022/03/04 10:23:20;;;;;;;22.55;14.38;;;;;;;;;;5014894;28;20017;-76
2022/03/04 10:25:51;;;;;;;36.70;18.85;;;;;;;;;;5015061;28;20018;-76
2022/03/04 10:28:18;;;;;;;38.58;25.20;;;;;;;;;;5014687;28;20026;-77
2022/03/04 10:30:45;;;;;;;29.13;19.13;;;;;;;;;;5014000;28;20097;-76
2022/03/04 10:33:13;;;;;;;31.88;20.58;;;;;;;;;;5012343;28;20018;-75
2022/03/04 10:35:40;;;;;;;32.95;20.98;;;;;;;;;;5008584;28;20014;-77
2022/03/04 10:38:06;;;;;;;31.98;21.02;;;;;;;;;;5012058;28;20491;-79
2022/03/04 10:40:35;;;;;;;36.17;26.25;;;;;;;;;;5004216;28;20045;-76
2022/03/04 10:43:02;;;;;;;40.13;26.00;;;;;;;;;;5012960;28;20030;-77
2022/03/04 10:45:30;;;;;;;49.08;27.27;;;;;;;;;;5014259;28;20026;-77
2022/03/04 10:47:57;;;;;;;26.95;19.02;;;;;;;;;;5013947;28;20022;-77
2022/03/04 10:50:27;;;;;;;29.33;15.00;;;;;;;;;;5014306;28;20026;-76
2022/03/04 10:52:54;;;;;;;27.80;20.92;;;;;;;;;;5014212;28;20030;-77
2022/03/04 10:55:31;;;;;;;64.30;43.17;;;;;;;;;;5012745;28;20028;-76
2022/03/04 10:57:58;;;;;;;30.13;18.02;;;;;;;;;;5014066;28;20568;-76
2022/03/04 11:00:25;;;;;;;27.77;21.13;;;;;;;;;;5012253;28;20030;-76
2022/03/04 11:02:52;;;;;;;37.72;23.73;;;;;;;;;;5012025;28;20040;-76
2022/03/04 11:05:18;;;;;;;27.33;19.13;;;;;;;;;;5012382;28;20690;-76
2022/03/04 11:07:45;;;;;;;39.60;21.30;;;;;;;;;;5010872;28;20054;-75
2022/03/04 11:10:11;;;;;;;42.50;23.90;;;;;;;;;;5012682;28;20109;-76
2022/03/04 11:12:40;;;;;;;28.08;19.42;;;;;;;;;;5012670;28;20068;-79
2022/03/04 11:15:06;;;;;;;30.42;20.38;;;;;;;;;;5013369;28;20493;-76
2022/03/04 11:17:33;;;;;;;33.10;21.63;;;281.90;1126.40;;;;;;5013275;28;20060;-77
2022/03/04 11:19:59;;;;;;;29.45;19.75;;;307.20;1126.40;;;;;;5010710;28;20428;-77
2022/03/04 11:22:25;;;;;;;27.60;19.83;;;332.80;1049.60;;;;;;4999628;28;20034;-77
2022/03/04 11:24:51;;;;;;;32.42;21.48;;;333.60;1177.60;;;;;;5038136;28;20520;-77
2022/03/04 11:27:19;;;;;;;31.10;23.23;;;333.60;998.40;;;;;;5011383;28;20401;-77
2022/03/04 11:29:45;;;;;;;37.53;23.98;;;333.40;1024.00;;;;;;5010966;28;20033;-77
2022/03/04 11:32:11;;;;;;;31.50;20.95;;;358.60;998.40;;;;;;5013550;28;20477;-78
2022/03/04 11:34:42;;;;;;;28.35;18.48;;;333.20;998.40;;;;;;5010827;28;20045;-76
2022/03/04 11:37:19;;;;;;;24.02;17.95;;;282.20;1049.60;;;;;;5012787;28;20033;-78
2022/03/04 11:40:33;;;;;;;23.67;16.13;;;281.70;1049.60;;;;;;5013302;28;20026;-77
2022/03/04 11:42:53;;;;;;;37.70;21.92;;;231.20;1075.20;;;;;;5012688;28;20030;-77
2022/03/04 11:45:30;;;;;;;26.92;20.02;;;256.40;1100.80;;;;;;5010662;28;20022;-76
2022/03/04 11:48:03;;;;;;;35.85;25.02;;;307.30;1049.60;;;;;;5008222;28;20018;-77
2022/03/04 11:50:47;;;;;;;29.13;18.80;;;308.00;998.40;;;;;;5012010;28;20441;-77
2022/03/04 11:53:22;;;;;;;26.92;19.63;;;256.70;1049.60;;;;;;5011817;28;20087;-78
2022/03/04 11:56:14;;;;;;;35.88;23.35;;;256.10;1075.20;;;;;;5012621;28;20030;-78
2022/03/04 11:59:05;;;;;;;35.35;22.33;;;281.90;1075.20;;;;;;5011802;28;20060;-78
2022/03/04 12:01:36;;;;;;;30.50;21.70;;;307.40;1049.60;;;;;;5009383;28;20401;-77
2022/03/04 12:04:19;;;;;;;28.45;18.80;;;;;;;;;;5012195;28;20497;-76
2022/03/04 12:07:06;;;;;;;32.42;19.70;;;333.20;972.80;;;;;;5012844;28;20551;-78
2022/03/04 12:09:32;;;;;;;32.03;20.42;;;333.00;998.40;;;;;;5011444;28;20041;-79
2022/03/04 12:12:25;;;;;;;32.53;20.40;;;333.50;972.80;;;;;;5012593;28;20022;-77
2022/03/04 12:15:15;;;;;;;33.38;19.95;;;359.20;896.00;;;;;;5012899;28;21079;-79
2022/03/04 12:17:59;;;;;;;26.15;18.25;;;358.60;921.60;;;;;;5012247;28;20030;-77
2022/03/04 12:20:29;;;;;;;24.48;20.83;;;333.60;921.60;;;;;;5012523;28;20540;-79
2022/03/04 12:22:59;;;;;;;23.33;17.45;;;308.00;972.80;;;;;;5012360;28;20042;-78
2022/03/04 12:25:53;;;;;;;23.63;18.42;;;358.70;921.60;;;;;;5011201;28;20080;-78
2022/03/04 12:28:24;;;;;;;31.25;20.45;;;384.30;870.40;;;;;;5012275;28;20151;-77
2022/03/04 12:31:02;;;;;;;24.60;18.13;;;308.00;972.80;;;;;;5012595;28;20052;-76
2022/03/04 12:33:36;;;;;;;25.33;18.95;;;307.80;972.80;;;;;;5014594;28;20167;-75